This is the latest recevied weather packets stored in our database for station/object N3FU-13. If no packets are shown the sender has not sent any weather packets the latest 10 day(s).
| Time | Temp. | Humidity | Pressure | Rain* | Wind** | Luminosity | Snow |
|---|---|---|---|---|---|---|---|
| 1777746431 | 27.22° C | 89% | 1011.2 hPa | 0 mm | - | - | - |
| 1777745531 | 27.78° C | 88% | 1011.2 hPa | 0 mm | - | - | - |
| 1777744742 | 27.78° C | 87% | 1011.4 hPa | 0 mm | - | - | - |
| 1777744631 | 27.78° C | 87% | 1011.4 hPa | 0 mm | - | - | - |
| 1777743731 | 28.33° C | 86% | 1011.4 hPa | 0 mm | - | - | - |
| 1777742831 | 28.33° C | 85% | 1011.2 hPa | 0 mm | - | - | - |
| 1777741931 | 28.89° C | 85% | 1011.3 hPa | 0 mm | - | - | - |
| 1777741031 | 28.89° C | 83% | 1011.6 hPa | 0 mm | - | - | - |
| 1777740131 | 29.44° C | 82% | 1011.7 hPa | 0 mm | - | - | - |
| 1777739297 | 30° C | 79% | 1011.3 hPa | 0 mm | - | - | - |
| 1777739231 | 30° C | 79% | 1011.3 hPa | 0 mm | - | - | - |
| 1777738331 | 30.56° C | 78% | 1011.2 hPa | 0 mm | - | - | - |
| 1777737713 | 30.56° C | 79% | 1011 hPa | 0 mm | - | - | - |
| 1777737431 | 30.56° C | 79% | 1011 hPa | 0 mm | - | - | - |
| 1777736531 | 29.44° C | 81% | 1011.6 hPa | 0 mm | - | - | - |
| 1777735631 | 28.89° C | 81% | 1011.6 hPa | 0 mm | - | - | - |
| 1777734731 | 30° C | 78% | 1011.7 hPa | 0 mm | - | - | - |
| 1777733831 | 29.44° C | 79% | 1011.1 hPa | 0 mm | - | - | - |
| 1777732931 | 29.44° C | 81% | 1010.9 hPa | 0 mm | - | - | - |
| 1777732031 | 28.89° C | 82% | 1011 hPa | 0 mm | - | - | - |
| 1777731131 | 28.33° C | 85% | 1010.9 hPa | 0 mm | - | - | - |
| 1777730231 | 27.78° C | 87% | 1011 hPa | 0 mm | - | - | - |
| 1777729331 | 27.22° C | 89% | 1010.8 hPa | 0 mm | - | - | - |
| 1777728431 | 26.67° C | 90% | 1010.7 hPa | 0 mm | - | - | - |
| 1777727531 | 26.11° C | 90% | 1010.4 hPa | 0 mm | - | - | - |
* Rain latest hour (hover to see other rain measurements)
** Current wind speed in m/s (hover to see current wind gust speed)